sensor_id;sensor_type;location;lat;lon;timestamp;P1;durP1;ratioP1;P2;durP2;ratioP2
38499;SDS011;24269;51.894;4.622;2023-03-14T00:01:23;4.82;;;1.05;;
38499;SDS011;24269;51.894;4.622;2023-03-14T00:03:49;2.40;;;0.55;;
38499;SDS011;24269;51.894;4.622;2023-03-14T00:06:15;3.13;;;0.95;;
38499;SDS011;24269;51.894;4.622;2023-03-14T00:08:42;3.80;;;0.80;;
38499;SDS011;24269;51.894;4.622;2023-03-14T00:11:13;3.83;;;0.90;;
38499;SDS011;24269;51.894;4.622;2023-03-14T00:13:42;5.78;;;0.75;;
38499;SDS011;24269;51.894;4.622;2023-03-14T00:16:09;7.55;;;1.10;;
38499;SDS011;24269;51.894;4.622;2023-03-14T00:18:36;7.10;;;1.05;;
38499;SDS011;24269;51.894;4.622;2023-03-14T00:21:03;6.80;;;1.20;;
38499;SDS011;24269;51.894;4.622;2023-03-14T00:23:30;5.68;;;1.10;;
38499;SDS011;24269;51.894;4.622;2023-03-14T00:25:58;7.00;;;1.50;;
38499;SDS011;24269;51.894;4.622;2023-03-14T00:28:37;3.78;;;1.00;;
38499;SDS011;24269;51.894;4.622;2023-03-14T00:31:04;6.43;;;1.27;;
38499;SDS011;24269;51.894;4.622;2023-03-14T00:33:34;5.47;;;0.90;;
38499;SDS011;24269;51.894;4.622;2023-03-14T00:36:01;2.78;;;0.90;;
38499;SDS011;24269;51.894;4.622;2023-03-14T00:38:30;5.03;;;1.00;;
38499;SDS011;24269;51.894;4.622;2023-03-14T00:40:56;5.57;;;1.00;;
38499;SDS011;24269;51.894;4.622;2023-03-14T00:43:22;6.15;;;0.90;;
38499;SDS011;24269;51.894;4.622;2023-03-14T00:45:49;4.68;;;0.93;;
38499;SDS011;24269;51.894;4.622;2023-03-14T00:48:15;8.30;;;1.48;;
38499;SDS011;24269;51.894;4.622;2023-03-14T00:50:41;5.90;;;0.90;;
38499;SDS011;24269;51.894;4.622;2023-03-14T00:53:07;8.73;;;0.93;;
38499;SDS011;24269;51.894;4.622;2023-03-14T00:55:35;7.32;;;1.00;;
38499;SDS011;24269;51.894;4.622;2023-03-14T00:58:02;5.30;;;1.00;;
38499;SDS011;24269;51.894;4.622;2023-03-14T01:00:28;6.53;;;0.70;;
38499;SDS011;24269;51.894;4.622;2023-03-14T01:02:53;9.15;;;1.10;;
38499;SDS011;24269;51.894;4.622;2023-03-14T01:05:19;5.10;;;0.80;;
38499;SDS011;24269;51.894;4.622;2023-03-14T01:07:47;6.72;;;1.23;;
38499;SDS011;24269;51.894;4.622;2023-03-14T01:10:12;4.32;;;0.63;;
38499;SDS011;24269;51.894;4.622;2023-03-14T01:12:38;3.85;;;0.90;;
38499;SDS011;24269;51.894;4.622;2023-03-14T01:15:04;5.80;;;0.85;;
38499;SDS011;24269;51.894;4.622;2023-03-14T01:17:30;4.95;;;0.70;;
38499;SDS011;24269;51.894;4.622;2023-03-14T01:19:55;5.47;;;1.13;;
38499;SDS011;24269;51.894;4.622;2023-03-14T01:22:21;3.00;;;0.82;;
38499;SDS011;24269;51.894;4.622;2023-03-14T01:24:47;5.40;;;0.85;;
38499;SDS011;24269;51.894;4.622;2023-03-14T01:27:12;9.90;;;1.23;;
38499;SDS011;24269;51.894;4.622;2023-03-14T01:29:38;6.30;;;1.10;;
38499;SDS011;24269;51.894;4.622;2023-03-14T01:32:04;5.40;;;0.68;;
38499;SDS011;24269;51.894;4.622;2023-03-14T01:34:30;7.63;;;0.90;;
38499;SDS011;24269;51.894;4.622;2023-03-14T01:36:55;3.40;;;0.63;;
38499;SDS011;24269;51.894;4.622;2023-03-14T01:39:21;4.78;;;0.80;;
38499;SDS011;24269;51.894;4.622;2023-03-14T01:41:47;7.22;;;1.20;;
38499;SDS011;24269;51.894;4.622;2023-03-14T01:44:12;7.20;;;1.08;;
38499;SDS011;24269;51.894;4.622;2023-03-14T01:46:42;6.05;;;1.15;;
38499;SDS011;24269;51.894;4.622;2023-03-14T01:52:11;5.53;;;1.35;;
38499;SDS011;24269;51.894;4.622;2023-03-14T01:54:44;5.95;;;0.80;;
38499;SDS011;24269;51.894;4.622;2023-03-14T02:00:00;6.10;;;0.98;;
38499;SDS011;24269;51.894;4.622;2023-03-14T02:02:35;5.32;;;0.77;;
38499;SDS011;24269;51.894;4.622;2023-03-14T02:05:00;5.60;;;0.73;;
38499;SDS011;24269;51.894;4.622;2023-03-14T02:10:14;5.88;;;1.23;;
38499;SDS011;24269;51.894;4.622;2023-03-14T02:12:46;2.85;;;0.80;;
38499;SDS011;24269;51.894;4.622;2023-03-14T02:15:13;3.13;;;0.73;;
38499;SDS011;24269;51.894;4.622;2023-03-14T02:17:40;6.82;;;0.80;;
38499;SDS011;24269;51.894;4.622;2023-03-14T02:22:38;5.93;;;1.00;;
38499;SDS011;24269;51.894;4.622;2023-03-14T02:25:28;4.13;;;0.90;;
38499;SDS011;24269;51.894;4.622;2023-03-14T02:28:22;4.13;;;0.70;;
38499;SDS011;24269;51.894;4.622;2023-03-14T02:30:48;5.80;;;1.33;;
38499;SDS011;24269;51.894;4.622;2023-03-14T02:33:15;4.93;;;0.73;;
38499;SDS011;24269;51.894;4.622;2023-03-14T02:35:46;3.13;;;0.80;;
38499;SDS011;24269;51.894;4.622;2023-03-14T02:38:19;6.05;;;0.93;;
38499;SDS011;24269;51.894;4.622;2023-03-14T02:40:46;8.02;;;1.10;;
38499;SDS011;24269;51.894;4.622;2023-03-14T02:43:12;5.82;;;1.00;;
38499;SDS011;24269;51.894;4.622;2023-03-14T02:45:39;6.32;;;1.00;;
38499;SDS011;24269;51.894;4.622;2023-03-14T02:48:09;5.63;;;0.93;;
38499;SDS011;24269;51.894;4.622;2023-03-14T02:50:40;4.65;;;1.00;;
38499;SDS011;24269;51.894;4.622;2023-03-14T02:53:06;5.40;;;1.23;;
38499;SDS011;24269;51.894;4.622;2023-03-14T02:55:32;3.92;;;1.10;;
38499;SDS011;24269;51.894;4.622;2023-03-14T02:57:58;7.60;;;1.10;;
38499;SDS011;24269;51.894;4.622;2023-03-14T03:00:23;7.22;;;1.75;;
38499;SDS011;24269;51.894;4.622;2023-03-14T03:02:49;5.50;;;1.20;;
38499;SDS011;24269;51.894;4.622;2023-03-14T03:05:15;5.93;;;1.10;;
38499;SDS011;24269;51.894;4.622;2023-03-14T03:07:41;4.53;;;0.95;;
38499;SDS011;24269;51.894;4.622;2023-03-14T03:10:07;7.68;;;1.13;;
38499;SDS011;24269;51.894;4.622;2023-03-14T03:12:33;7.57;;;1.17;;
38499;SDS011;24269;51.894;4.622;2023-03-14T03:14:59;5.28;;;0.90;;
38499;SDS011;24269;51.894;4.622;2023-03-14T03:17:24;5.60;;;1.00;;
38499;SDS011;24269;51.894;4.622;2023-03-14T03:19:50;6.35;;;1.48;;
38499;SDS011;24269;51.894;4.622;2023-03-14T03:22:15;9.73;;;1.50;;
38499;SDS011;24269;51.894;4.622;2023-03-14T03:24:41;2.63;;;0.75;;
38499;SDS011;24269;51.894;4.622;2023-03-14T03:27:06;7.00;;;1.27;;
38499;SDS011;24269;51.894;4.622;2023-03-14T03:29:32;6.78;;;1.17;;
38499;SDS011;24269;51.894;4.622;2023-03-14T03:31:58;7.72;;;0.73;;
38499;SDS011;24269;51.894;4.622;2023-03-14T03:34:23;5.78;;;1.02;;
38499;SDS011;24269;51.894;4.622;2023-03-14T03:36:49;9.02;;;1.20;;
38499;SDS011;24269;51.894;4.622;2023-03-14T03:39:14;5.47;;;1.00;;
38499;SDS011;24269;51.894;4.622;2023-03-14T03:41:40;5.35;;;0.95;;
38499;SDS011;24269;51.894;4.622;2023-03-14T03:44:05;5.15;;;1.13;;
38499;SDS011;24269;51.894;4.622;2023-03-14T03:46:31;7.00;;;1.20;;
38499;SDS011;24269;51.894;4.622;2023-03-14T03:48:58;4.72;;;1.00;;
38499;SDS011;24269;51.894;4.622;2023-03-14T03:51:25;7.70;;;1.10;;
38499;SDS011;24269;51.894;4.622;2023-03-14T03:53:51;9.48;;;2.03;;
38499;SDS011;24269;51.894;4.622;2023-03-14T03:56:17;5.15;;;0.90;;
38499;SDS011;24269;51.894;4.622;2023-03-14T03:58:43;5.82;;;1.05;;
38499;SDS011;24269;51.894;4.622;2023-03-14T04:01:09;6.60;;;1.35;;
38499;SDS011;24269;51.894;4.622;2023-03-14T04:03:35;4.03;;;0.80;;
38499;SDS011;24269;51.894;4.622;2023-03-14T04:06:07;4.38;;;1.10;;
38499;SDS011;24269;51.894;4.622;2023-03-14T04:08:35;9.07;;;1.25;;
38499;SDS011;24269;51.894;4.622;2023-03-14T04:11:01;3.83;;;0.93;;
38499;SDS011;24269;51.894;4.622;2023-03-14T04:13:27;2.65;;;0.68;;
38499;SDS011;24269;51.894;4.622;2023-03-14T04:15:54;5.47;;;0.90;;
38499;SDS011;24269;51.894;4.622;2023-03-14T04:18:20;6.38;;;0.90;;
38499;SDS011;24269;51.894;4.622;2023-03-14T04:20:56;5.07;;;1.23;;
38499;SDS011;24269;51.894;4.622;2023-03-14T04:23:22;3.97;;;0.80;;
38499;SDS011;24269;51.894;4.622;2023-03-14T04:25:52;4.03;;;1.00;;
38499;SDS011;24269;51.894;4.622;2023-03-14T04:28:18;6.75;;;0.65;;
38499;SDS011;24269;51.894;4.622;2023-03-14T04:30:44;7.70;;;1.20;;
38499;SDS011;24269;51.894;4.622;2023-03-14T04:33:10;4.22;;;0.70;;
38499;SDS011;24269;51.894;4.622;2023-03-14T04:35:37;4.10;;;0.85;;
38499;SDS011;24269;51.894;4.622;2023-03-14T04:38:03;5.20;;;1.05;;
38499;SDS011;24269;51.894;4.622;2023-03-14T04:40:28;4.97;;;0.90;;
38499;SDS011;24269;51.894;4.622;2023-03-14T04:42:54;5.75;;;1.10;;
38499;SDS011;24269;51.894;4.622;2023-03-14T04:45:20;5.38;;;1.15;;
38499;SDS011;24269;51.894;4.622;2023-03-14T04:47:45;8.63;;;1.17;;
38499;SDS011;24269;51.894;4.622;2023-03-14T04:50:11;4.72;;;1.02;;
38499;SDS011;24269;51.894;4.622;2023-03-14T04:52:37;2.85;;;1.00;;
38499;SDS011;24269;51.894;4.622;2023-03-14T04:55:02;2.65;;;0.65;;
38499;SDS011;24269;51.894;4.622;2023-03-14T04:57:28;3.63;;;0.85;;
38499;SDS011;24269;51.894;4.622;2023-03-14T04:59:54;5.57;;;0.70;;
38499;SDS011;24269;51.894;4.622;2023-03-14T05:02:19;4.82;;;0.90;;
38499;SDS011;24269;51.894;4.622;2023-03-14T05:04:45;4.20;;;0.80;;
38499;SDS011;24269;51.894;4.622;2023-03-14T05:07:11;3.45;;;0.82;;
38499;SDS011;24269;51.894;4.622;2023-03-14T05:09:36;3.95;;;0.80;;
38499;SDS011;24269;51.894;4.622;2023-03-14T05:12:02;3.53;;;0.98;;
38499;SDS011;24269;51.894;4.622;2023-03-14T05:14:27;1.75;;;0.70;;
38499;SDS011;24269;51.894;4.622;2023-03-14T05:16:53;2.10;;;0.82;;
38499;SDS011;24269;51.894;4.622;2023-03-14T05:19:19;2.55;;;0.80;;
38499;SDS011;24269;51.894;4.622;2023-03-14T05:21:44;4.95;;;1.10;;
38499;SDS011;24269;51.894;4.622;2023-03-14T05:24:10;3.70;;;0.93;;
38499;SDS011;24269;51.894;4.622;2023-03-14T05:26:36;6.00;;;1.02;;
38499;SDS011;24269;51.894;4.622;2023-03-14T05:29:01;4.15;;;1.33;;
38499;SDS011;24269;51.894;4.622;2023-03-14T05:31:27;5.80;;;1.02;;
38499;SDS011;24269;51.894;4.622;2023-03-14T05:33:52;4.57;;;1.25;;
38499;SDS011;24269;51.894;4.622;2023-03-14T05:36:18;3.28;;;1.30;;
38499;SDS011;24269;51.894;4.622;2023-03-14T05:38:43;3.75;;;1.02;;
38499;SDS011;24269;51.894;4.622;2023-03-14T05:41:09;6.45;;;1.80;;
38499;SDS011;24269;51.894;4.622;2023-03-14T05:43:35;5.15;;;1.50;;
38499;SDS011;24269;51.894;4.622;2023-03-14T05:46:00;7.05;;;1.80;;
38499;SDS011;24269;51.894;4.622;2023-03-14T05:48:26;6.07;;;1.65;;
38499;SDS011;24269;51.894;4.622;2023-03-14T05:50:55;3.97;;;1.80;;
38499;SDS011;24269;51.894;4.622;2023-03-14T05:53:22;5.80;;;1.33;;
38499;SDS011;24269;51.894;4.622;2023-03-14T05:55:50;2.08;;;0.70;;
38499;SDS011;24269;51.894;4.622;2023-03-14T05:58:17;2.40;;;0.63;;
38499;SDS011;24269;51.894;4.622;2023-03-14T06:00:42;4.22;;;0.70;;
38499;SDS011;24269;51.894;4.622;2023-03-14T06:03:08;3.50;;;0.70;;
38499;SDS011;24269;51.894;4.622;2023-03-14T06:05:33;3.60;;;0.70;;
38499;SDS011;24269;51.894;4.622;2023-03-14T06:07:59;1.75;;;0.70;;
38499;SDS011;24269;51.894;4.622;2023-03-14T06:10:25;2.83;;;0.50;;
38499;SDS011;24269;51.894;4.622;2023-03-14T06:12:50;2.67;;;0.60;;
38499;SDS011;24269;51.894;4.622;2023-03-14T06:15:16;0.80;;;0.60;;
38499;SDS011;24269;51.894;4.622;2023-03-14T06:17:41;0.95;;;0.40;;
38499;SDS011;24269;51.894;4.622;2023-03-14T06:20:07;2.08;;;0.60;;
38499;SDS011;24269;51.894;4.622;2023-03-14T06:22:34;5.28;;;0.73;;
38499;SDS011;24269;51.894;4.622;2023-03-14T06:24:59;1.08;;;0.60;;
38499;SDS011;24269;51.894;4.622;2023-03-14T06:27:25;2.33;;;0.50;;
38499;SDS011;24269;51.894;4.622;2023-03-14T06:29:51;2.90;;;0.70;;
38499;SDS011;24269;51.894;4.622;2023-03-14T06:32:16;2.38;;;0.73;;
38499;SDS011;24269;51.894;4.622;2023-03-14T06:34:43;5.35;;;0.90;;
38499;SDS011;24269;51.894;4.622;2023-03-14T06:37:09;2.92;;;0.80;;
38499;SDS011;24269;51.894;4.622;2023-03-14T06:39:34;6.10;;;0.90;;
38499;SDS011;24269;51.894;4.622;2023-03-14T06:42:00;3.38;;;1.10;;
38499;SDS011;24269;51.894;4.622;2023-03-14T06:44:25;5.35;;;1.05;;
38499;SDS011;24269;51.894;4.622;2023-03-14T06:46:51;2.25;;;1.08;;
38499;SDS011;24269;51.894;4.622;2023-03-14T06:49:17;3.08;;;0.90;;
38499;SDS011;24269;51.894;4.622;2023-03-14T06:51:42;1.52;;;0.75;;
38499;SDS011;24269;51.894;4.622;2023-03-14T06:54:08;3.35;;;1.00;;
38499;SDS011;24269;51.894;4.622;2023-03-14T06:56:33;2.30;;;0.73;;
38499;SDS011;24269;51.894;4.622;2023-03-14T06:58:59;2.97;;;0.60;;
38499;SDS011;24269;51.894;4.622;2023-03-14T07:01:26;3.40;;;1.10;;
38499;SDS011;24269;51.894;4.622;2023-03-14T07:03:54;2.97;;;0.70;;
38499;SDS011;24269;51.894;4.622;2023-03-14T07:06:20;2.42;;;0.52;;
38499;SDS011;24269;51.894;4.622;2023-03-14T07:08:46;1.30;;;0.50;;
38499;SDS011;24269;51.894;4.622;2023-03-14T07:11:12;1.30;;;0.40;;
38499;SDS011;24269;51.894;4.622;2023-03-14T07:13:38;2.63;;;0.73;;
38499;SDS011;24269;51.894;4.622;2023-03-14T07:16:04;3.78;;;0.75;;
38499;SDS011;24269;51.894;4.622;2023-03-14T07:18:30;6.47;;;1.63;;
38499;SDS011;24269;51.894;4.622;2023-03-14T07:20:56;2.95;;;1.00;;
38499;SDS011;24269;51.894;4.622;2023-03-14T07:23:22;2.95;;;0.90;;
38499;SDS011;24269;51.894;4.622;2023-03-14T07:25:47;5.82;;;1.02;;
38499;SDS011;24269;51.894;4.622;2023-03-14T07:28:13;3.92;;;1.92;;
38499;SDS011;24269;51.894;4.622;2023-03-14T07:30:39;6.05;;;1.60;;
38499;SDS011;24269;51.894;4.622;2023-03-14T07:33:04;7.40;;;1.58;;
38499;SDS011;24269;51.894;4.622;2023-03-14T07:35:30;10.88;;;3.90;;
38499;SDS011;24269;51.894;4.622;2023-03-14T07:37:56;22.83;;;9.63;;
38499;SDS011;24269;51.894;4.622;2023-03-14T07:40:21;19.05;;;8.27;;
38499;SDS011;24269;51.894;4.622;2023-03-14T07:42:47;14.48;;;4.45;;
38499;SDS011;24269;51.894;4.622;2023-03-14T07:45:13;18.80;;;8.25;;
38499;SDS011;24269;51.894;4.622;2023-03-14T07:47:38;12.32;;;4.65;;
38499;SDS011;24269;51.894;4.622;2023-03-14T07:50:04;20.77;;;9.45;;
38499;SDS011;24269;51.894;4.622;2023-03-14T07:52:30;13.65;;;5.63;;
38499;SDS011;24269;51.894;4.622;2023-03-14T07:54:56;12.95;;;2.85;;
38499;SDS011;24269;51.894;4.622;2023-03-14T07:57:22;17.08;;;5.82;;
38499;SDS011;24269;51.894;4.622;2023-03-14T07:59:48;12.82;;;5.90;;
38499;SDS011;24269;51.894;4.622;2023-03-14T08:02:14;8.45;;;2.72;;
38499;SDS011;24269;51.894;4.622;2023-03-14T08:04:40;12.55;;;5.00;;
38499;SDS011;24269;51.894;4.622;2023-03-14T08:07:05;2.58;;;0.95;;
38499;SDS011;24269;51.894;4.622;2023-03-14T08:09:31;2.03;;;0.50;;
38499;SDS011;24269;51.894;4.622;2023-03-14T08:11:57;2.67;;;0.60;;
38499;SDS011;24269;51.894;4.622;2023-03-14T08:14:22;1.75;;;0.52;;
38499;SDS011;24269;51.894;4.622;2023-03-14T08:16:51;2.08;;;0.50;;
38499;SDS011;24269;51.894;4.622;2023-03-14T08:19:17;2.95;;;0.60;;
38499;SDS011;24269;51.894;4.622;2023-03-14T08:21:43;3.90;;;0.68;;
38499;SDS011;24269;51.894;4.622;2023-03-14T08:24:08;1.65;;;0.47;;
38499;SDS011;24269;51.894;4.622;2023-03-14T08:26:34;4.10;;;0.50;;
38499;SDS011;24269;51.894;4.622;2023-03-14T08:29:00;2.15;;;0.60;;
38499;SDS011;24269;51.894;4.622;2023-03-14T08:31:26;4.68;;;1.52;;
38499;SDS011;24269;51.894;4.622;2023-03-14T08:33:51;5.65;;;1.33;;
38499;SDS011;24269;51.894;4.622;2023-03-14T08:36:18;2.55;;;0.70;;
38499;SDS011;24269;51.894;4.622;2023-03-14T08:38:44;5.38;;;1.10;;
38499;SDS011;24269;51.894;4.622;2023-03-14T08:41:11;3.17;;;0.60;;
38499;SDS011;24269;51.894;4.622;2023-03-14T08:43:37;6.30;;;1.30;;
38499;SDS011;24269;51.894;4.622;2023-03-14T08:46:02;3.45;;;0.90;;
38499;SDS011;24269;51.894;4.622;2023-03-14T08:48:28;1.83;;;0.70;;
38499;SDS011;24269;51.894;4.622;2023-03-14T08:50:55;2.33;;;0.50;;
38499;SDS011;24269;51.894;4.622;2023-03-14T08:53:21;1.90;;;0.55;;
38499;SDS011;24269;51.894;4.622;2023-03-14T08:55:51;3.05;;;0.60;;
38499;SDS011;24269;51.894;4.622;2023-03-14T08:58:18;0.77;;;0.45;;
38499;SDS011;24269;51.894;4.622;2023-03-14T09:00:44;1.70;;;0.60;;
38499;SDS011;24269;51.894;4.622;2023-03-14T09:03:10;4.25;;;1.10;;
38499;SDS011;24269;51.894;4.622;2023-03-14T09:05:35;6.57;;;0.50;;
38499;SDS011;24269;51.894;4.622;2023-03-14T09:08:01;2.13;;;0.45;;
38499;SDS011;24269;51.894;4.622;2023-03-14T09:10:27;6.22;;;0.65;;
38499;SDS011;24269;51.894;4.622;2023-03-14T09:12:52;2.05;;;0.82;;
38499;SDS011;24269;51.894;4.622;2023-03-14T09:15:18;3.05;;;0.70;;
38499;SDS011;24269;51.894;4.622;2023-03-14T09:17:44;2.55;;;0.85;;
38499;SDS011;24269;51.894;4.622;2023-03-14T09:20:10;3.70;;;0.60;;
38499;SDS011;24269;51.894;4.622;2023-03-14T09:22:35;5.38;;;0.88;;
38499;SDS011;24269;51.894;4.622;2023-03-14T09:25:02;3.13;;;1.02;;
38499;SDS011;24269;51.894;4.622;2023-03-14T09:27:29;5.07;;;0.93;;
38499;SDS011;24269;51.894;4.622;2023-03-14T09:29:54;8.57;;;1.50;;
38499;SDS011;24269;51.894;4.622;2023-03-14T09:32:20;6.28;;;1.05;;
38499;SDS011;24269;51.894;4.622;2023-03-14T09:34:45;4.32;;;1.00;;
38499;SDS011;24269;51.894;4.622;2023-03-14T09:37:11;8.95;;;0.90;;
38499;SDS011;24269;51.894;4.622;2023-03-14T09:39:37;3.25;;;0.55;;
38499;SDS011;24269;51.894;4.622;2023-03-14T09:42:04;3.28;;;0.70;;
38499;SDS011;24269;51.894;4.622;2023-03-14T09:44:34;6.60;;;1.17;;
38499;SDS011;24269;51.894;4.622;2023-03-14T09:47:07;7.80;;;1.20;;
38499;SDS011;24269;51.894;4.622;2023-03-14T09:49:39;8.85;;;1.45;;
38499;SDS011;24269;51.894;4.622;2023-03-14T09:52:16;6.85;;;1.30;;
38499;SDS011;24269;51.894;4.622;2023-03-14T09:55:06;6.53;;;1.05;;
38499;SDS011;24269;51.894;4.622;2023-03-14T09:57:37;6.50;;;0.93;;
38499;SDS011;24269;51.894;4.622;2023-03-14T10:00:13;9.20;;;1.60;;
38499;SDS011;24269;51.894;4.622;2023-03-14T10:02:54;11.27;;;1.20;;
38499;SDS011;24269;51.894;4.622;2023-03-14T10:05:22;8.95;;;2.10;;
38499;SDS011;24269;51.894;4.622;2023-03-14T10:07:50;9.43;;;1.42;;
38499;SDS011;24269;51.894;4.622;2023-03-14T10:10:19;5.65;;;1.02;;
38499;SDS011;24269;51.894;4.622;2023-03-14T10:12:47;9.43;;;1.35;;
38499;SDS011;24269;51.894;4.622;2023-03-14T10:15:37;7.53;;;0.93;;
38499;SDS011;24269;51.894;4.622;2023-03-14T10:18:04;6.13;;;1.48;;
38499;SDS011;24269;51.894;4.622;2023-03-14T10:20:38;9.30;;;1.00;;
38499;SDS011;24269;51.894;4.622;2023-03-14T10:25:39;8.95;;;1.20;;
38499;SDS011;24269;51.894;4.622;2023-03-14T10:28:25;11.63;;;1.15;;
38499;SDS011;24269;51.894;4.622;2023-03-14T10:30:52;7.85;;;1.33;;
38499;SDS011;24269;51.894;4.622;2023-03-14T10:36:02;7.28;;;1.42;;
38499;SDS011;24269;51.894;4.622;2023-03-14T10:38:28;9.70;;;1.38;;
38499;SDS011;24269;51.894;4.622;2023-03-14T10:40:56;10.63;;;1.60;;
38499;SDS011;24269;51.894;4.622;2023-03-14T10:43:33;8.50;;;1.67;;
38499;SDS011;24269;51.894;4.622;2023-03-14T10:46:01;10.20;;;2.00;;
38499;SDS011;24269;51.894;4.622;2023-03-14T10:48:36;8.07;;;1.30;;
38499;SDS011;24269;51.894;4.622;2023-03-14T10:53:50;10.45;;;1.40;;
38499;SDS011;24269;51.894;4.622;2023-03-14T10:56:21;13.40;;;2.13;;
38499;SDS011;24269;51.894;4.622;2023-03-14T10:58:49;10.73;;;1.60;;
38499;SDS011;24269;51.894;4.622;2023-03-14T11:09:23;7.10;;;1.10;;
38499;SDS011;24269;51.894;4.622;2023-03-14T11:12:48;9.30;;;1.42;;
38499;SDS011;24269;51.894;4.622;2023-03-14T11:15:38;9.90;;;1.33;;
38499;SDS011;24269;51.894;4.622;2023-03-14T11:18:17;10.43;;;1.70;;
38499;SDS011;24269;51.894;4.622;2023-03-14T11:21:13;6.05;;;1.30;;
38499;SDS011;24269;51.894;4.622;2023-03-14T11:24:14;7.40;;;1.35;;
38499;SDS011;24269;51.894;4.622;2023-03-14T11:27:06;8.60;;;1.35;;
38499;SDS011;24269;51.894;4.622;2023-03-14T11:29:51;14.52;;;1.42;;
38499;SDS011;24269;51.894;4.622;2023-03-14T11:34:58;14.82;;;1.75;;
38499;SDS011;24269;51.894;4.622;2023-03-14T11:37:41;8.65;;;1.48;;
38499;SDS011;24269;51.894;4.622;2023-03-14T11:40:13;6.40;;;1.20;;
38499;SDS011;24269;51.894;4.622;2023-03-14T11:42:43;4.18;;;1.48;;
38499;SDS011;24269;51.894;4.622;2023-03-14T11:45:18;3.72;;;0.80;;
38499;SDS011;24269;51.894;4.622;2023-03-14T11:47:53;11.48;;;1.20;;
38499;SDS011;24269;51.894;4.622;2023-03-14T11:50:27;8.45;;;1.33;;
38499;SDS011;24269;51.894;4.622;2023-03-14T11:52:56;5.07;;;0.85;;
38499;SDS011;24269;51.894;4.622;2023-03-14T11:55:36;9.45;;;1.05;;
38499;SDS011;24269;51.894;4.622;2023-03-14T11:58:27;4.50;;;0.77;;
38499;SDS011;24269;51.894;4.622;2023-03-14T12:00:54;7.35;;;1.17;;
38499;SDS011;24269;51.894;4.622;2023-03-14T12:03:24;6.35;;;1.50;;
38499;SDS011;24269;51.894;4.622;2023-03-14T12:06:20;5.00;;;1.13;;
38499;SDS011;24269;51.894;4.622;2023-03-14T12:09:01;9.98;;;1.20;;
38499;SDS011;24269;51.894;4.622;2023-03-14T12:11:33;8.85;;;1.65;;
38499;SDS011;24269;51.894;4.622;2023-03-14T12:13:59;3.70;;;0.70;;
38499;SDS011;24269;51.894;4.622;2023-03-14T12:16:33;8.40;;;1.15;;
38499;SDS011;24269;51.894;4.622;2023-03-14T12:19:14;4.57;;;0.80;;
38499;SDS011;24269;51.894;4.622;2023-03-14T12:21:45;4.88;;;0.57;;
38499;SDS011;24269;51.894;4.622;2023-03-14T12:24:31;11.35;;;1.60;;
38499;SDS011;24269;51.894;4.622;2023-03-14T12:27:01;2.83;;;0.80;;
38499;SDS011;24269;51.894;4.622;2023-03-14T12:29:28;4.75;;;0.80;;
38499;SDS011;24269;51.894;4.622;2023-03-14T12:34:43;1.75;;;0.60;;
38499;SDS011;24269;51.894;4.622;2023-03-14T12:37:28;3.72;;;0.80;;
38499;SDS011;24269;51.894;4.622;2023-03-14T12:40:17;5.22;;;0.90;;
38499;SDS011;24269;51.894;4.622;2023-03-14T12:42:56;9.57;;;1.38;;
38499;SDS011;24269;51.894;4.622;2023-03-14T12:48:09;4.78;;;1.10;;
38499;SDS011;24269;51.894;4.622;2023-03-14T12:51:02;9.05;;;0.90;;
38499;SDS011;24269;51.894;4.622;2023-03-14T13:04:44;3.88;;;0.98;;
38499;SDS011;24269;51.894;4.622;2023-03-14T13:07:13;9.02;;;1.08;;
38499;SDS011;24269;51.894;4.622;2023-03-14T13:10:20;6.50;;;0.82;;
38499;SDS011;24269;51.894;4.622;2023-03-14T13:13:19;4.82;;;0.93;;
38499;SDS011;24269;51.894;4.622;2023-03-14T13:15:54;4.57;;;0.70;;
38499;SDS011;24269;51.894;4.622;2023-03-14T13:18:37;4.68;;;0.82;;
38499;SDS011;24269;51.894;4.622;2023-03-14T13:21:06;6.28;;;0.60;;
38499;SDS011;24269;51.894;4.622;2023-03-14T13:23:58;6.05;;;0.95;;
38499;SDS011;24269;51.894;4.622;2023-03-14T13:29:35;3.88;;;0.60;;
38499;SDS011;24269;51.894;4.622;2023-03-14T13:31:59;6.82;;;0.85;;
38499;SDS011;24269;51.894;4.622;2023-03-14T13:34:41;8.10;;;0.80;;
38499;SDS011;24269;51.894;4.622;2023-03-14T13:37:21;6.05;;;1.20;;
38499;SDS011;24269;51.894;4.622;2023-03-14T13:39:49;6.32;;;0.77;;
38499;SDS011;24269;51.894;4.622;2023-03-14T13:42:20;6.38;;;0.70;;
38499;SDS011;24269;51.894;4.622;2023-03-14T13:44:53;3.38;;;0.60;;
38499;SDS011;24269;51.894;4.622;2023-03-14T13:47:23;3.50;;;0.85;;
38499;SDS011;24269;51.894;4.622;2023-03-14T13:49:51;6.57;;;0.75;;
38499;SDS011;24269;51.894;4.622;2023-03-14T13:55:04;6.55;;;0.90;;
38499;SDS011;24269;51.894;4.622;2023-03-14T13:57:48;5.05;;;0.80;;
38499;SDS011;24269;51.894;4.622;2023-03-14T14:00:23;3.47;;;0.60;;
38499;SDS011;24269;51.894;4.622;2023-03-14T14:02:55;4.30;;;1.13;;
38499;SDS011;24269;51.894;4.622;2023-03-14T14:05:26;3.13;;;0.80;;
38499;SDS011;24269;51.894;4.622;2023-03-14T14:07:53;3.22;;;0.63;;
38499;SDS011;24269;51.894;4.622;2023-03-14T14:10:20;5.45;;;1.10;;
38499;SDS011;24269;51.894;4.622;2023-03-14T14:13:02;6.25;;;1.30;;
38499;SDS011;24269;51.894;4.622;2023-03-14T14:15:33;6.50;;;1.50;;
38499;SDS011;24269;51.894;4.622;2023-03-14T14:18:11;5.18;;;1.00;;
38499;SDS011;24269;51.894;4.622;2023-03-14T14:20:41;5.90;;;1.60;;
38499;SDS011;24269;51.894;4.622;2023-03-14T14:23:19;3.47;;;0.88;;
38499;SDS011;24269;51.894;4.622;2023-03-14T14:25:51;5.53;;;0.90;;
38499;SDS011;24269;51.894;4.622;2023-03-14T14:31:00;6.32;;;1.35;;
38499;SDS011;24269;51.894;4.622;2023-03-14T14:33:40;4.35;;;0.98;;
38499;SDS011;24269;51.894;4.622;2023-03-14T14:38:53;4.07;;;0.98;;
38499;SDS011;24269;51.894;4.622;2023-03-14T14:43:57;4.20;;;1.00;;
38499;SDS011;24269;51.894;4.622;2023-03-14T14:46:30;3.72;;;0.70;;
38499;SDS011;24269;51.894;4.622;2023-03-14T14:49:02;4.38;;;0.90;;
38499;SDS011;24269;51.894;4.622;2023-03-14T14:51:40;6.25;;;0.70;;
38499;SDS011;24269;51.894;4.622;2023-03-14T14:54:12;6.30;;;1.00;;
38499;SDS011;24269;51.894;4.622;2023-03-14T14:56:52;7.88;;;1.27;;
38499;SDS011;24269;51.894;4.622;2023-03-14T14:59:20;5.10;;;0.80;;
38499;SDS011;24269;51.894;4.622;2023-03-14T15:01:55;5.80;;;1.00;;
38499;SDS011;24269;51.894;4.622;2023-03-14T15:04:25;5.05;;;1.10;;
38499;SDS011;24269;51.894;4.622;2023-03-14T15:06:51;8.23;;;2.17;;
38499;SDS011;24269;51.894;4.622;2023-03-14T15:09:17;8.70;;;1.75;;
38499;SDS011;24269;51.894;4.622;2023-03-14T15:11:44;8.25;;;2.13;;
38499;SDS011;24269;51.894;4.622;2023-03-14T15:14:11;8.18;;;1.20;;
38499;SDS011;24269;51.894;4.622;2023-03-14T15:16:36;5.18;;;0.77;;
38499;SDS011;24269;51.894;4.622;2023-03-14T15:19:09;5.65;;;1.65;;
38499;SDS011;24269;51.894;4.622;2023-03-14T15:21:57;3.30;;;1.30;;
38499;SDS011;24269;51.894;4.622;2023-03-14T15:24:23;4.95;;;0.98;;
38499;SDS011;24269;51.894;4.622;2023-03-14T15:26:49;4.45;;;0.93;;
38499;SDS011;24269;51.894;4.622;2023-03-14T15:29:15;3.75;;;0.80;;
38499;SDS011;24269;51.894;4.622;2023-03-14T15:31:41;3.42;;;1.05;;
38499;SDS011;24269;51.894;4.622;2023-03-14T15:34:08;4.75;;;0.80;;
38499;SDS011;24269;51.894;4.622;2023-03-14T15:36:34;6.47;;;1.10;;
38499;SDS011;24269;51.894;4.622;2023-03-14T15:39:02;5.75;;;0.88;;
38499;SDS011;24269;51.894;4.622;2023-03-14T15:41:30;2.83;;;0.68;;
38499;SDS011;24269;51.894;4.622;2023-03-14T15:43:56;6.25;;;0.95;;
38499;SDS011;24269;51.894;4.622;2023-03-14T15:46:22;13.43;;;3.95;;
38499;SDS011;24269;51.894;4.622;2023-03-14T15:48:49;5.45;;;2.65;;
38499;SDS011;24269;51.894;4.622;2023-03-14T15:51:15;20.05;;;6.43;;
38499;SDS011;24269;51.894;4.622;2023-03-14T15:53:42;7.97;;;1.98;;
38499;SDS011;24269;51.894;4.622;2023-03-14T15:56:16;9.18;;;2.03;;
38499;SDS011;24269;51.894;4.622;2023-03-14T15:58:43;9.27;;;2.75;;